sensor_id;sensor_type;location;lat;lon;timestamp;P1;durP1;ratioP1;P2;durP2;ratioP2
32812;SDS011;19162;48.254;11.454;2022-09-29T00:00:47;3.13;;;1.77;;
32812;SDS011;19162;48.254;11.454;2022-09-29T00:03:48;1.75;;;1.55;;
32812;SDS011;19162;48.254;11.454;2022-09-29T00:06:48;1.95;;;1.60;;
32812;SDS011;19162;48.254;11.454;2022-09-29T00:09:49;1.50;;;1.38;;
32812;SDS011;19162;48.254;11.454;2022-09-29T00:12:49;1.35;;;1.25;;
32812;SDS011;19162;48.254;11.454;2022-09-29T00:15:58;1.48;;;1.38;;
32812;SDS011;19162;48.254;11.454;2022-09-29T00:18:59;3.00;;;1.70;;
32812;SDS011;19162;48.254;11.454;2022-09-29T00:22:00;1.92;;;1.60;;
32812;SDS011;19162;48.254;11.454;2022-09-29T00:25:00;1.83;;;1.52;;
32812;SDS011;19162;48.254;11.454;2022-09-29T00:28:01;1.70;;;1.50;;
32812;SDS011;19162;48.254;11.454;2022-09-29T00:31:01;2.17;;;1.23;;
32812;SDS011;19162;48.254;11.454;2022-09-29T00:34:02;1.60;;;1.50;;
32812;SDS011;19162;48.254;11.454;2022-09-29T00:37:02;1.17;;;1.13;;
32812;SDS011;19162;48.254;11.454;2022-09-29T00:40:03;1.20;;;1.10;;
32812;SDS011;19162;48.254;11.454;2022-09-29T00:43:04;2.47;;;1.45;;
32812;SDS011;19162;48.254;11.454;2022-09-29T00:46:04;4.68;;;1.10;;
32812;SDS011;19162;48.254;11.454;2022-09-29T00:49:14;1.40;;;1.30;;
32812;SDS011;19162;48.254;11.454;2022-09-29T00:52:33;2.08;;;1.52;;
32812;SDS011;19162;48.254;11.454;2022-09-29T00:55:35;1.42;;;1.33;;
32812;SDS011;19162;48.254;11.454;2022-09-29T00:58:39;1.45;;;1.35;;
32812;SDS011;19162;48.254;11.454;2022-09-29T01:01:41;1.40;;;1.30;;
32812;SDS011;19162;48.254;11.454;2022-09-29T01:04:41;3.20;;;1.37;;
32812;SDS011;19162;48.254;11.454;2022-09-29T01:07:42;2.00;;;1.42;;
32812;SDS011;19162;48.254;11.454;2022-09-29T01:10:43;2.65;;;1.30;;
32812;SDS011;19162;48.254;11.454;2022-09-29T01:13:44;1.92;;;1.27;;
32812;SDS011;19162;48.254;11.454;2022-09-29T01:16:44;1.70;;;1.60;;
32812;SDS011;19162;48.254;11.454;2022-09-29T01:26:17;2.75;;;1.60;;
32812;SDS011;19162;48.254;11.454;2022-09-29T01:29:29;3.58;;;1.70;;
32812;SDS011;19162;48.254;11.454;2022-09-29T01:32:39;1.30;;;1.20;;
32812;SDS011;19162;48.254;11.454;2022-09-29T01:35:46;0.88;;;0.88;;
32812;SDS011;19162;48.254;11.454;2022-09-29T01:42:31;1.17;;;1.03;;
32812;SDS011;19162;48.254;11.454;2022-09-29T01:48:22;2.28;;;1.35;;
32812;SDS011;19162;48.254;11.454;2022-09-29T01:51:41;1.77;;;1.27;;
32812;SDS011;19162;48.254;11.454;2022-09-29T01:54:45;3.35;;;1.50;;
32812;SDS011;19162;48.254;11.454;2022-09-29T01:57:49;1.50;;;1.40;;
32812;SDS011;19162;48.254;11.454;2022-09-29T02:00:51;2.45;;;1.20;;
32812;SDS011;19162;48.254;11.454;2022-09-29T02:04:03;1.50;;;1.40;;
32812;SDS011;19162;48.254;11.454;2022-09-29T02:07:05;3.85;;;1.38;;
32812;SDS011;19162;48.254;11.454;2022-09-29T02:10:28;1.00;;;1.00;;
32812;SDS011;19162;48.254;11.454;2022-09-29T02:13:30;3.03;;;1.40;;
32812;SDS011;19162;48.254;11.454;2022-09-29T02:16:35;1.48;;;0.90;;
32812;SDS011;19162;48.254;11.454;2022-09-29T02:19:39;1.13;;;1.02;;
32812;SDS011;19162;48.254;11.454;2022-09-29T02:22:40;1.88;;;1.10;;
32812;SDS011;19162;48.254;11.454;2022-09-29T02:25:41;1.23;;;1.13;;
32812;SDS011;19162;48.254;11.454;2022-09-29T02:28:42;1.27;;;1.00;;
32812;SDS011;19162;48.254;11.454;2022-09-29T02:31:43;2.35;;;1.00;;
32812;SDS011;19162;48.254;11.454;2022-09-29T02:34:44;4.18;;;1.08;;
32812;SDS011;19162;48.254;11.454;2022-09-29T03:00:28;1.45;;;1.10;;
32812;SDS011;19162;48.254;11.454;2022-09-29T03:03:29;1.55;;;1.40;;
32812;SDS011;19162;48.254;11.454;2022-09-29T03:06:29;1.83;;;1.50;;
32812;SDS011;19162;48.254;11.454;2022-09-29T03:09:29;1.30;;;1.20;;
32812;SDS011;19162;48.254;11.454;2022-09-29T03:12:29;1.90;;;1.40;;
32812;SDS011;19162;48.254;11.454;2022-09-29T03:15:29;2.83;;;1.63;;
32812;SDS011;19162;48.254;11.454;2022-09-29T03:18:30;1.30;;;1.20;;
32812;SDS011;19162;48.254;11.454;2022-09-29T03:21:30;1.63;;;1.20;;
32812;SDS011;19162;48.254;11.454;2022-09-29T03:24:30;2.08;;;1.50;;
32812;SDS011;19162;48.254;11.454;2022-09-29T03:27:31;1.87;;;1.37;;
32812;SDS011;19162;48.254;11.454;2022-09-29T03:30:32;1.67;;;1.58;;
32812;SDS011;19162;48.254;11.454;2022-09-29T03:33:32;3.38;;;1.85;;
32812;SDS011;19162;48.254;11.454;2022-09-29T03:36:32;1.67;;;1.57;;
32812;SDS011;19162;48.254;11.454;2022-09-29T03:39:32;1.45;;;1.35;;
32812;SDS011;19162;48.254;11.454;2022-09-29T03:42:33;1.33;;;1.23;;
32812;SDS011;19162;48.254;11.454;2022-09-29T03:45:33;1.83;;;1.67;;
32812;SDS011;19162;48.254;11.454;2022-09-29T03:48:33;2.87;;;1.67;;
32812;SDS011;19162;48.254;11.454;2022-09-29T03:51:34;4.03;;;2.00;;
32812;SDS011;19162;48.254;11.454;2022-09-29T03:54:34;2.17;;;1.80;;
32812;SDS011;19162;48.254;11.454;2022-09-29T03:57:34;2.83;;;1.80;;
32812;SDS011;19162;48.254;11.454;2022-09-29T04:00:35;3.90;;;1.80;;
32812;SDS011;19162;48.254;11.454;2022-09-29T04:03:35;4.23;;;1.83;;
32812;SDS011;19162;48.254;11.454;2022-09-29T04:06:35;3.78;;;1.60;;
32812;SDS011;19162;48.254;11.454;2022-09-29T04:09:35;2.05;;;1.95;;
32812;SDS011;19162;48.254;11.454;2022-09-29T04:12:36;2.40;;;2.20;;
32812;SDS011;19162;48.254;11.454;2022-09-29T04:15:36;1.80;;;1.70;;
32812;SDS011;19162;48.254;11.454;2022-09-29T04:18:36;3.55;;;2.20;;
32812;SDS011;19162;48.254;11.454;2022-09-29T04:21:37;3.47;;;2.47;;
32812;SDS011;19162;48.254;11.454;2022-09-29T04:24:37;1.90;;;1.80;;
32812;SDS011;19162;48.254;11.454;2022-09-29T04:27:37;3.23;;;1.97;;
32812;SDS011;19162;48.254;11.454;2022-09-29T04:30:37;2.20;;;1.90;;
32812;SDS011;19162;48.254;11.454;2022-09-29T04:33:38;2.95;;;1.95;;
32812;SDS011;19162;48.254;11.454;2022-09-29T04:36:38;2.47;;;2.28;;
32812;SDS011;19162;48.254;11.454;2022-09-29T04:39:38;3.53;;;3.22;;
32812;SDS011;19162;48.254;11.454;2022-09-29T04:42:39;4.20;;;3.93;;
32812;SDS011;19162;48.254;11.454;2022-09-29T04:45:39;5.50;;;3.70;;
32812;SDS011;19162;48.254;11.454;2022-09-29T04:48:39;3.22;;;2.92;;
32812;SDS011;19162;48.254;11.454;2022-09-29T04:51:39;3.00;;;2.60;;
32812;SDS011;19162;48.254;11.454;2022-09-29T04:54:40;4.03;;;2.58;;
32812;SDS011;19162;48.254;11.454;2022-09-29T04:57:41;2.53;;;2.30;;
32812;SDS011;19162;48.254;11.454;2022-09-29T05:00:41;2.13;;;1.92;;
32812;SDS011;19162;48.254;11.454;2022-09-29T05:03:41;2.92;;;2.72;;
32812;SDS011;19162;48.254;11.454;2022-09-29T05:06:42;3.78;;;2.70;;
32812;SDS011;19162;48.254;11.454;2022-09-29T05:09:42;2.40;;;2.17;;
32812;SDS011;19162;48.254;11.454;2022-09-29T05:12:47;2.60;;;2.40;;
32812;SDS011;19162;48.254;11.454;2022-09-29T05:15:47;2.40;;;1.95;;
32812;SDS011;19162;48.254;11.454;2022-09-29T05:18:48;1.93;;;1.83;;
32812;SDS011;19162;48.254;11.454;2022-09-29T05:21:48;2.65;;;2.22;;
32812;SDS011;19162;48.254;11.454;2022-09-29T05:24:50;2.22;;;2.03;;
32812;SDS011;19162;48.254;11.454;2022-09-29T05:27:50;3.05;;;2.20;;
32812;SDS011;19162;48.254;11.454;2022-09-29T05:30:50;3.00;;;2.80;;
32812;SDS011;19162;48.254;11.454;2022-09-29T05:33:50;5.43;;;2.87;;
32812;SDS011;19162;48.254;11.454;2022-09-29T05:36:51;6.40;;;3.00;;
32812;SDS011;19162;48.254;11.454;2022-09-29T05:39:51;3.47;;;3.17;;
32812;SDS011;19162;48.254;11.454;2022-09-29T05:42:51;4.00;;;3.17;;
32812;SDS011;19162;48.254;11.454;2022-09-29T05:45:51;4.90;;;3.50;;
32812;SDS011;19162;48.254;11.454;2022-09-29T05:48:51;3.97;;;3.57;;
32812;SDS011;19162;48.254;11.454;2022-09-29T05:51:52;4.63;;;3.17;;
32812;SDS011;19162;48.254;11.454;2022-09-29T05:54:52;4.65;;;3.63;;
32812;SDS011;19162;48.254;11.454;2022-09-29T05:57:52;4.63;;;3.53;;
32812;SDS011;19162;48.254;11.454;2022-09-29T06:00:52;5.07;;;4.10;;
32812;SDS011;19162;48.254;11.454;2022-09-29T06:03:53;4.60;;;4.20;;
32812;SDS011;19162;48.254;11.454;2022-09-29T06:06:53;4.28;;;3.88;;
32812;SDS011;19162;48.254;11.454;2022-09-29T06:09:56;5.32;;;3.95;;
32812;SDS011;19162;48.254;11.454;2022-09-29T06:12:56;4.95;;;3.70;;
32812;SDS011;19162;48.254;11.454;2022-09-29T06:15:59;5.90;;;3.75;;
32812;SDS011;19162;48.254;11.454;2022-09-29T06:19:00;5.25;;;3.22;;
32812;SDS011;19162;48.254;11.454;2022-09-29T06:22:00;6.38;;;3.63;;
32812;SDS011;19162;48.254;11.454;2022-09-29T06:25:00;3.37;;;3.03;;
32812;SDS011;19162;48.254;11.454;2022-09-29T06:28:01;6.57;;;3.10;;
32812;SDS011;19162;48.254;11.454;2022-09-29T06:31:02;4.78;;;2.10;;
32812;SDS011;19162;48.254;11.454;2022-09-29T06:34:03;3.25;;;2.47;;
32812;SDS011;19162;48.254;11.454;2022-09-29T06:37:04;2.83;;;2.03;;
32812;SDS011;19162;48.254;11.454;2022-09-29T06:40:23;4.28;;;2.25;;
32812;SDS011;19162;48.254;11.454;2022-09-29T06:43:23;8.30;;;6.28;;
32812;SDS011;19162;48.254;11.454;2022-09-29T06:46:23;8.60;;;4.00;;
32812;SDS011;19162;48.254;11.454;2022-09-29T06:49:25;5.67;;;3.63;;
32812;SDS011;19162;48.254;11.454;2022-09-29T06:52:26;5.47;;;3.33;;
32812;SDS011;19162;48.254;11.454;2022-09-29T06:55:26;3.40;;;2.97;;
32812;SDS011;19162;48.254;11.454;2022-09-29T06:58:27;3.05;;;2.75;;
32812;SDS011;19162;48.254;11.454;2022-09-29T07:01:28;3.60;;;2.90;;
32812;SDS011;19162;48.254;11.454;2022-09-29T07:04:28;5.33;;;2.80;;
32812;SDS011;19162;48.254;11.454;2022-09-29T07:07:28;4.57;;;3.30;;
32812;SDS011;19162;48.254;11.454;2022-09-29T07:10:28;5.83;;;3.40;;
32812;SDS011;19162;48.254;11.454;2022-09-29T07:13:29;4.47;;;3.77;;
32812;SDS011;19162;48.254;11.454;2022-09-29T07:16:29;3.17;;;2.97;;
32812;SDS011;19162;48.254;11.454;2022-09-29T07:19:29;3.20;;;3.00;;
32812;SDS011;19162;48.254;11.454;2022-09-29T07:22:29;3.35;;;3.08;;
32812;SDS011;19162;48.254;11.454;2022-09-29T07:25:30;3.37;;;2.73;;
32812;SDS011;19162;48.254;11.454;2022-09-29T07:28:30;4.13;;;2.60;;
32812;SDS011;19162;48.254;11.454;2022-09-29T07:31:30;3.17;;;2.88;;
32812;SDS011;19162;48.254;11.454;2022-09-29T07:34:31;2.80;;;2.60;;
32812;SDS011;19162;48.254;11.454;2022-09-29T07:37:31;3.33;;;3.08;;
32812;SDS011;19162;48.254;11.454;2022-09-29T07:40:31;2.67;;;2.47;;
32812;SDS011;19162;48.254;11.454;2022-09-29T07:43:32;3.28;;;2.08;;
32812;SDS011;19162;48.254;11.454;2022-09-29T07:46:32;3.23;;;2.27;;
32812;SDS011;19162;48.254;11.454;2022-09-29T07:49:32;2.73;;;2.20;;
32812;SDS011;19162;48.254;11.454;2022-09-29T07:52:32;3.20;;;2.27;;
32812;SDS011;19162;48.254;11.454;2022-09-29T07:55:33;2.70;;;2.40;;
32812;SDS011;19162;48.254;11.454;2022-09-29T07:58:33;1.97;;;1.77;;
32812;SDS011;19162;48.254;11.454;2022-09-29T08:01:33;2.00;;;1.90;;
32812;SDS011;19162;48.254;11.454;2022-09-29T08:04:34;2.90;;;1.70;;
32812;SDS011;19162;48.254;11.454;2022-09-29T08:07:34;1.77;;;1.67;;
32812;SDS011;19162;48.254;11.454;2022-09-29T08:10:34;2.70;;;2.07;;
32812;SDS011;19162;48.254;11.454;2022-09-29T08:13:35;2.20;;;2.00;;
32812;SDS011;19162;48.254;11.454;2022-09-29T08:16:36;1.77;;;1.67;;
32812;SDS011;19162;48.254;11.454;2022-09-29T08:19:36;3.17;;;1.80;;
32812;SDS011;19162;48.254;11.454;2022-09-29T08:22:37;1.73;;;1.40;;
32812;SDS011;19162;48.254;11.454;2022-09-29T08:25:37;1.83;;;1.73;;
32812;SDS011;19162;48.254;11.454;2022-09-29T08:28:37;3.80;;;1.13;;
32812;SDS011;19162;48.254;11.454;2022-09-29T08:31:38;1.50;;;1.40;;
32812;SDS011;19162;48.254;11.454;2022-09-29T08:34:38;1.40;;;0.90;;
32812;SDS011;19162;48.254;11.454;2022-09-29T08:37:39;1.38;;;1.05;;
32812;SDS011;19162;48.254;11.454;2022-09-29T08:40:39;0.90;;;0.90;;
32812;SDS011;19162;48.254;11.454;2022-09-29T08:43:39;1.20;;;1.10;;
32812;SDS011;19162;48.254;11.454;2022-09-29T08:46:46;4.10;;;1.52;;
32812;SDS011;19162;48.254;11.454;2022-09-29T08:52:48;3.47;;;2.17;;
32812;SDS011;19162;48.254;11.454;2022-09-29T08:55:55;2.05;;;1.90;;
32812;SDS011;19162;48.254;11.454;2022-09-29T08:58:56;8.07;;;2.17;;
32812;SDS011;19162;48.254;11.454;2022-09-29T09:02:12;1.50;;;1.40;;
32812;SDS011;19162;48.254;11.454;2022-09-29T09:06:05;1.10;;;1.10;;
32812;SDS011;19162;48.254;11.454;2022-09-29T09:08:43;1.55;;;1.10;;
32812;SDS011;19162;48.254;11.454;2022-09-29T09:12:01;2.58;;;1.23;;
32812;SDS011;19162;48.254;11.454;2022-09-29T09:15:13;1.73;;;1.30;;
32812;SDS011;19162;48.254;11.454;2022-09-29T09:21:39;2.05;;;1.73;;
32812;SDS011;19162;48.254;11.454;2022-09-29T09:24:46;2.38;;;1.20;;
32812;SDS011;19162;48.254;11.454;2022-09-29T09:27:48;3.47;;;1.20;;
32812;SDS011;19162;48.254;11.454;2022-09-29T09:34:02;1.13;;;1.02;;
32812;SDS011;19162;48.254;11.454;2022-09-29T09:37:05;1.58;;;1.02;;
32812;SDS011;19162;48.254;11.454;2022-09-29T09:40:20;1.42;;;1.33;;
32812;SDS011;19162;48.254;11.454;2022-09-29T09:43:30;1.90;;;0.88;;
32812;SDS011;19162;48.254;11.454;2022-09-29T09:49:40;1.17;;;1.17;;
32812;SDS011;19162;48.254;11.454;2022-09-29T09:52:46;1.35;;;1.25;;
32812;SDS011;19162;48.254;11.454;2022-09-29T09:55:51;1.30;;;1.20;;
32812;SDS011;19162;48.254;11.454;2022-09-29T10:02:18;1.13;;;1.10;;
32812;SDS011;19162;48.254;11.454;2022-09-29T10:05:33;1.05;;;1.00;;
32812;SDS011;19162;48.254;11.454;2022-09-29T10:08:37;1.45;;;1.10;;
32812;SDS011;19162;48.254;11.454;2022-09-29T10:11:39;1.23;;;1.20;;
32812;SDS011;19162;48.254;11.454;2022-09-29T10:14:40;1.10;;;1.00;;
32812;SDS011;19162;48.254;11.454;2022-09-29T10:17:44;1.65;;;1.30;;
32812;SDS011;19162;48.254;11.454;2022-09-29T10:20:45;2.47;;;1.13;;
32812;SDS011;19162;48.254;11.454;2022-09-29T10:23:52;1.60;;;1.00;;
32812;SDS011;19162;48.254;11.454;2022-09-29T10:26:54;0.88;;;0.88;;
32812;SDS011;19162;48.254;11.454;2022-09-29T10:29:55;1.20;;;1.03;;
32812;SDS011;19162;48.254;11.454;2022-09-29T10:32:58;1.30;;;1.20;;
32812;SDS011;19162;48.254;11.454;2022-09-29T10:36:05;1.20;;;1.20;;
32812;SDS011;19162;48.254;11.454;2022-09-29T10:39:08;1.92;;;1.27;;
32812;SDS011;19162;48.254;11.454;2022-09-29T10:42:36;1.50;;;1.23;;
32812;SDS011;19162;48.254;11.454;2022-09-29T10:45:45;2.65;;;2.50;;
32812;SDS011;19162;48.254;11.454;2022-09-29T10:48:46;1.20;;;1.10;;
32812;SDS011;19162;48.254;11.454;2022-09-29T10:51:53;2.17;;;1.97;;
32812;SDS011;19162;48.254;11.454;2022-09-29T10:54:58;1.15;;;1.10;;
32812;SDS011;19162;48.254;11.454;2022-09-29T10:58:00;1.48;;;1.38;;
32812;SDS011;19162;48.254;11.454;2022-09-29T11:01:09;2.88;;;1.27;;
32812;SDS011;19162;48.254;11.454;2022-09-29T11:04:15;0.80;;;0.80;;
32812;SDS011;19162;48.254;11.454;2022-09-29T11:07:16;1.10;;;1.10;;
32812;SDS011;19162;48.254;11.454;2022-09-29T11:10:32;2.27;;;1.17;;
32812;SDS011;19162;48.254;11.454;2022-09-29T11:13:35;3.40;;;1.75;;
32812;SDS011;19162;48.254;11.454;2022-09-29T11:16:36;1.48;;;1.35;;
32812;SDS011;19162;48.254;11.454;2022-09-29T11:19:36;2.05;;;1.40;;
32812;SDS011;19162;48.254;11.454;2022-09-29T11:32:30;1.35;;;1.33;;
32812;SDS011;19162;48.254;11.454;2022-09-29T11:39:11;1.70;;;1.60;;
32812;SDS011;19162;48.254;11.454;2022-09-29T11:42:20;1.25;;;1.17;;
32812;SDS011;19162;48.254;11.454;2022-09-29T11:45:47;1.50;;;1.35;;
32812;SDS011;19162;48.254;11.454;2022-09-29T11:55:26;1.90;;;1.58;;
32812;SDS011;19162;48.254;11.454;2022-09-29T12:04:54;1.30;;;1.20;;
32812;SDS011;19162;48.254;11.454;2022-09-29T12:17:23;1.70;;;1.60;;
32812;SDS011;19162;48.254;11.454;2022-09-29T12:20:28;2.67;;;1.50;;
32812;SDS011;19162;48.254;11.454;2022-09-29T12:23:29;1.40;;;1.20;;
32812;SDS011;19162;48.254;11.454;2022-09-29T12:26:31;1.58;;;1.35;;
32812;SDS011;19162;48.254;11.454;2022-09-29T12:29:36;1.90;;;1.42;;
32812;SDS011;19162;48.254;11.454;2022-09-29T12:32:40;2.88;;;1.60;;
32812;SDS011;19162;48.254;11.454;2022-09-29T12:38:44;2.55;;;1.55;;
32812;SDS011;19162;48.254;11.454;2022-09-29T12:41:47;2.53;;;2.40;;
32812;SDS011;19162;48.254;11.454;2022-09-29T12:44:53;3.88;;;3.58;;
32812;SDS011;19162;48.254;11.454;2022-09-29T12:51:28;1.55;;;1.40;;
32812;SDS011;19162;48.254;11.454;2022-09-29T12:54:31;3.75;;;1.48;;
32812;SDS011;19162;48.254;11.454;2022-09-29T12:57:38;1.65;;;1.55;;
32812;SDS011;19162;48.254;11.454;2022-09-29T13:00:40;1.60;;;1.50;;
32812;SDS011;19162;48.254;11.454;2022-09-29T13:03:48;1.13;;;1.10;;
32812;SDS011;19162;48.254;11.454;2022-09-29T13:23:36;2.45;;;1.33;;
32812;SDS011;19162;48.254;11.454;2022-09-29T13:29:19;2.75;;;1.30;;
32812;SDS011;19162;48.254;11.454;2022-09-29T13:32:19;1.75;;;1.65;;
32812;SDS011;19162;48.254;11.454;2022-09-29T13:35:20;1.97;;;1.80;;
32812;SDS011;19162;48.254;11.454;2022-09-29T13:38:24;1.40;;;1.30;;
32812;SDS011;19162;48.254;11.454;2022-09-29T13:44:29;1.70;;;1.42;;
32812;SDS011;19162;48.254;11.454;2022-09-29T13:47:32;1.93;;;1.30;;
32812;SDS011;19162;48.254;11.454;2022-09-29T13:53:42;1.73;;;1.63;;
32812;SDS011;19162;48.254;11.454;2022-09-29T13:56:45;1.73;;;1.57;;
32812;SDS011;19162;48.254;11.454;2022-09-29T14:03:03;6.72;;;2.22;;
32812;SDS011;19162;48.254;11.454;2022-09-29T14:06:11;2.15;;;1.95;;
32812;SDS011;19162;48.254;11.454;2022-09-29T14:09:14;2.33;;;1.83;;
32812;SDS011;19162;48.254;11.454;2022-09-29T14:12:18;2.22;;;2.03;;
32812;SDS011;19162;48.254;11.454;2022-09-29T14:15:20;2.60;;;2.08;;
32812;SDS011;19162;48.254;11.454;2022-09-29T14:18:37;3.90;;;3.60;;
32812;SDS011;19162;48.254;11.454;2022-09-29T14:21:51;4.30;;;2.20;;
32812;SDS011;19162;48.254;11.454;2022-09-29T14:24:52;1.92;;;1.83;;
32812;SDS011;19162;48.254;11.454;2022-09-29T14:30:58;3.60;;;1.80;;
32812;SDS011;19162;48.254;11.454;2022-09-29T14:34:01;1.83;;;1.73;;
32812;SDS011;19162;48.254;11.454;2022-09-29T14:37:02;2.03;;;1.77;;
32812;SDS011;19162;48.254;11.454;2022-09-29T14:40:04;1.85;;;1.40;;
32812;SDS011;19162;48.254;11.454;2022-09-29T14:43:25;2.00;;;1.60;;
32812;SDS011;19162;48.254;11.454;2022-09-29T14:50:21;2.10;;;1.35;;
32812;SDS011;19162;48.254;11.454;2022-09-29T14:57:31;2.50;;;1.92;;
32812;SDS011;19162;48.254;11.454;2022-09-29T15:03:43;2.15;;;1.83;;
32812;SDS011;19162;48.254;11.454;2022-09-29T15:06:46;3.08;;;2.00;;
32812;SDS011;19162;48.254;11.454;2022-09-29T15:09:48;3.20;;;2.42;;
32812;SDS011;19162;48.254;11.454;2022-09-29T15:12:50;3.47;;;2.83;;
32812;SDS011;19162;48.254;11.454;2022-09-29T15:15:52;3.53;;;2.60;;
32812;SDS011;19162;48.254;11.454;2022-09-29T15:19:10;2.75;;;2.38;;
32812;SDS011;19162;48.254;11.454;2022-09-29T15:25:31;3.20;;;2.92;;
32812;SDS011;19162;48.254;11.454;2022-09-29T15:28:33;3.10;;;2.50;;
32812;SDS011;19162;48.254;11.454;2022-09-29T15:31:35;2.85;;;2.58;;
32812;SDS011;19162;48.254;11.454;2022-09-29T15:34:36;7.25;;;2.88;;
32812;SDS011;19162;48.254;11.454;2022-09-29T15:40:45;3.65;;;3.13;;
32812;SDS011;19162;48.254;11.454;2022-09-29T15:43:52;6.93;;;5.70;;
32812;SDS011;19162;48.254;11.454;2022-09-29T15:46:56;4.15;;;3.75;;
32812;SDS011;19162;48.254;11.454;2022-09-29T15:49:57;10.23;;;4.65;;
32812;SDS011;19162;48.254;11.454;2022-09-29T15:53:00;4.00;;;3.60;;
32812;SDS011;19162;48.254;11.454;2022-09-29T15:56:01;7.63;;;5.47;;
32812;SDS011;19162;48.254;11.454;2022-09-29T15:59:01;4.13;;;3.73;;
32812;SDS011;19162;48.254;11.454;2022-09-29T16:02:05;9.52;;;5.95;;
32812;SDS011;19162;48.254;11.454;2022-09-29T16:05:14;5.78;;;4.72;;
32812;SDS011;19162;48.254;11.454;2022-09-29T16:08:15;5.15;;;3.80;;
32812;SDS011;19162;48.254;11.454;2022-09-29T16:11:20;5.68;;;3.30;;
32812;SDS011;19162;48.254;11.454;2022-09-29T16:14:21;6.90;;;4.80;;
32812;SDS011;19162;48.254;11.454;2022-09-29T16:17:23;2.97;;;2.78;;
32812;SDS011;19162;48.254;11.454;2022-09-29T16:20:29;7.90;;;6.57;;
32812;SDS011;19162;48.254;11.454;2022-09-29T16:23:35;14.98;;;10.98;;
32812;SDS011;19162;48.254;11.454;2022-09-29T16:26:37;15.10;;;11.00;;
32812;SDS011;19162;48.254;11.454;2022-09-29T16:29:37;6.93;;;6.17;;
32812;SDS011;19162;48.254;11.454;2022-09-29T16:32:40;11.30;;;10.20;;
32812;SDS011;19162;48.254;11.454;2022-09-29T16:38:52;5.97;;;5.43;;
32812;SDS011;19162;48.254;11.454;2022-09-29T16:41:56;5.70;;;5.30;;
32812;SDS011;19162;48.254;11.454;2022-09-29T16:44:57;6.18;;;5.68;;
32812;SDS011;19162;48.254;11.454;2022-09-29T16:47:58;4.82;;;4.40;;
32812;SDS011;19162;48.254;11.454;2022-09-29T16:50:59;15.65;;;14.38;;
32812;SDS011;19162;48.254;11.454;2022-09-29T16:54:00;12.05;;;11.15;;
32812;SDS011;19162;48.254;11.454;2022-09-29T17:00:20;5.35;;;4.95;;
32812;SDS011;19162;48.254;11.454;2022-09-29T17:03:21;6.55;;;6.05;;
32812;SDS011;19162;48.254;11.454;2022-09-29T17:06:21;5.82;;;5.32;;
32812;SDS011;19162;48.254;11.454;2022-09-29T17:09:21;4.57;;;4.17;;
32812;SDS011;19162;48.254;11.454;2022-09-29T17:12:23;4.57;;;4.28;;
32812;SDS011;19162;48.254;11.454;2022-09-29T17:15:24;5.25;;;3.92;;
32812;SDS011;19162;48.254;11.454;2022-09-29T17:18:25;4.72;;;4.32;;
32812;SDS011;19162;48.254;11.454;2022-09-29T17:21:26;6.07;;;5.57;;
32812;SDS011;19162;48.254;11.454;2022-09-29T17:24:26;6.78;;;6.10;;
32812;SDS011;19162;48.254;11.454;2022-09-29T17:27:28;6.45;;;5.95;;
32812;SDS011;19162;48.254;11.454;2022-09-29T17:30:47;4.55;;;4.25;;
32812;SDS011;19162;48.254;11.454;2022-09-29T17:33:49;5.57;;;5.07;;
32812;SDS011;19162;48.254;11.454;2022-09-29T17:36:50;5.10;;;4.80;;
32812;SDS011;19162;48.254;11.454;2022-09-29T17:39:51;5.60;;;5.20;;
32812;SDS011;19162;48.254;11.454;2022-09-29T17:42:51;6.32;;;5.72;;
32812;SDS011;19162;48.254;11.454;2022-09-29T17:45:53;7.53;;;6.67;;
32812;SDS011;19162;48.254;11.454;2022-09-29T17:48:53;7.30;;;6.70;;
32812;SDS011;19162;48.254;11.454;2022-09-29T17:51:54;6.53;;;6.03;;
32812;SDS011;19162;48.254;11.454;2022-09-29T17:54:54;6.18;;;5.65;;
32812;SDS011;19162;48.254;11.454;2022-09-29T17:57:54;6.47;;;5.97;;
32812;SDS011;19162;48.254;11.454;2022-09-29T18:00:55;6.20;;;5.80;;
32812;SDS011;19162;48.254;11.454;2022-09-29T18:03:56;7.15;;;5.75;;
32812;SDS011;19162;48.254;11.454;2022-09-29T18:06:56;6.73;;;6.23;;
32812;SDS011;19162;48.254;11.454;2022-09-29T18:09:56;7.63;;;7.03;;
32812;SDS011;19162;48.254;11.454;2022-09-29T18:12:57;8.18;;;7.55;;
32812;SDS011;19162;48.254;11.454;2022-09-29T18:15:58;7.53;;;7.03;;
32812;SDS011;19162;48.254;11.454;2022-09-29T18:18:58;8.65;;;7.95;;
32812;SDS011;19162;48.254;11.454;2022-09-29T18:21:59;8.47;;;7.87;;
32812;SDS011;19162;48.254;11.454;2022-09-29T18:28:02;9.45;;;8.75;;
32812;SDS011;19162;48.254;11.454;2022-09-29T18:31:05;9.18;;;8.48;;
32812;SDS011;19162;48.254;11.454;2022-09-29T18:34:07;8.02;;;7.43;;
32812;SDS011;19162;48.254;11.454;2022-09-29T18:37:08;8.40;;;7.80;;
32812;SDS011;19162;48.254;11.454;2022-09-29T18:40:08;8.63;;;8.03;;
32812;SDS011;19162;48.254;11.454;2022-09-29T18:43:09;10.38;;;9.48;;
32812;SDS011;19162;48.254;11.454;2022-09-29T18:46:11;10.45;;;9.68;;
32812;SDS011;19162;48.254;11.454;2022-09-29T18:49:13;10.52;;;9.68;;
32812;SDS011;19162;48.254;11.454;2022-09-29T18:52:13;9.85;;;8.90;;
32812;SDS011;19162;48.254;11.454;2022-09-29T18:55:14;16.97;;;15.47;;
32812;SDS011;19162;48.254;11.454;2022-09-29T19:01:18;16.13;;;14.80;;
32812;SDS011;19162;48.254;11.454;2022-09-29T19:04:20;13.60;;;12.40;;
32812;SDS011;19162;48.254;11.454;2022-09-29T19:07:20;12.30;;;11.40;;
32812;SDS011;19162;48.254;11.454;2022-09-29T19:10:21;19.80;;;18.10;;
32812;SDS011;19162;48.254;11.454;2022-09-29T19:13:24;24.73;;;22.55;;
32812;SDS011;19162;48.254;11.454;2022-09-29T19:16:25;35.60;;;32.35;;
32812;SDS011;19162;48.254;11.454;2022-09-29T19:19:26;16.15;;;14.90;;
32812;SDS011;19162;48.254;11.454;2022-09-29T19:22:27;11.07;;;10.27;;
32812;SDS011;19162;48.254;11.454;2022-09-29T19:25:34;10.35;;;9.55;;
32812;SDS011;19162;48.254;11.454;2022-09-29T19:28:35;10.10;;;9.40;;
32812;SDS011;19162;48.254;11.454;2022-09-29T19:31:35;10.53;;;9.67;;
32812;SDS011;19162;48.254;11.454;2022-09-29T19:34:35;8.80;;;8.20;;
32812;SDS011;19162;48.254;11.454;2022-09-29T19:37:35;8.27;;;7.78;;
32812;SDS011;19162;48.254;11.454;2022-09-29T19:40:36;6.93;;;6.43;;
32812;SDS011;19162;48.254;11.454;2022-09-29T19:43:37;6.57;;;6.07;;
32812;SDS011;19162;48.254;11.454;2022-09-29T19:46:37;6.63;;;5.15;;
32812;SDS011;19162;48.254;11.454;2022-09-29T19:49:37;6.67;;;4.33;;
32812;SDS011;19162;48.254;11.454;2022-09-29T19:52:37;4.43;;;4.13;;
32812;SDS011;19162;48.254;11.454;2022-09-29T19:55:38;4.93;;;4.60;;
32812;SDS011;19162;48.254;11.454;2022-09-29T19:58:39;4.40;;;4.00;;
32812;SDS011;19162;48.254;11.454;2022-09-29T20:01:40;4.93;;;4.43;;
32812;SDS011;19162;48.254;11.454;2022-09-29T20:04:41;4.78;;;4.38;;
32812;SDS011;19162;48.254;11.454;2022-09-29T20:07:42;4.63;;;4.30;;
32812;SDS011;19162;48.254;11.454;2022-09-29T20:10:45;4.25;;;3.95;;
32812;SDS011;19162;48.254;11.454;2022-09-29T20:13:45;5.18;;;4.78;;
32812;SDS011;19162;48.254;11.454;2022-09-29T20:16:46;4.47;;;4.13;;
32812;SDS011;19162;48.254;11.454;2022-09-29T20:19:46;5.17;;;4.77;;
32812;SDS011;19162;48.254;11.454;2022-09-29T20:22:46;4.50;;;4.20;;
32812;SDS011;19162;48.254;11.454;2022-09-29T20:25:47;4.57;;;4.18;;
32812;SDS011;19162;48.254;11.454;2022-09-29T20:28:47;4.73;;;4.20;;
32812;SDS011;19162;48.254;11.454;2022-09-29T20:31:48;5.22;;;4.75;;
32812;SDS011;19162;48.254;11.454;2022-09-29T20:34:48;4.78;;;4.38;;
32812;SDS011;19162;48.254;11.454;2022-09-29T20:37:49;4.55;;;4.15;;